MUGM/NBW METAR and TAF weather

Enter ICAO airport designator
Station Type Date Time Source
MUGM METAR 2022/10/01 07:51 UTC NOAA

MUGM 010751Z VRB04KT 10SM FEW015 BKN160 BKN250 24/24 A2980 RMK AO2 SLP091 T02440239 $


Station Type Date Time Source
MUGM Decoded METAR 2022/10/01 07:51 UTC NOAA

GUANTANAMO BAY, CUBA NAVAL, CU, Cuba (MUGM) 19-55N 075-12W 23M
Oct 01, 2022 - 03:51 AM EDT / 2022.10.01 0751 UTC
Wind: Variable at 5 MPH (4 KT):0
Visibility: 10 mile(s):0
Sky conditions: mostly cloudy
Temperature: 75.9 F (24.4 C)
Dew Point: 75.0 F (23.9 C)
Relative Humidity: 97%
Pressure (altimeter): 29.8 in. Hg (1009 hPa)
ob: MUGM 010751Z VRB04KT 10SM FEW015 BKN160 BKN250 24/24 A2980 RMK AO2 SLP091 T02440239
cycle: 8

Station Type Date Time Source
MUGM TAF 2022/10/01 07:09 UTC NOAA

TAF MUGM 0107/0207 VRB06KT 9999 VCSH SCT020 BKN060 QNH2975INS
TEMPO 0108/0114 8000 -SHRA BKN020 OVC050
BECMG 0114/0116 18010KT 9999 VCTS SCT020CB SCT080 BKN250 QNH2980INS
TEMPO 0114/0120 4800 -TSRA BKN020 OVC060 T24/0109Z T31/0116Z FN00253

Example: see airport list